sensor_id;sensor_type;location;lat;lon;timestamp;pressure;altitude;pressure_sealevel;temperature;humidity
36190;BME280;22232;50.914;13.858;2024-03-06T00:00:41;97933.22;;;3.04;100.00
36190;BME280;22232;50.914;13.858;2024-03-06T00:03:08;97942.59;;;3.07;100.00
36190;BME280;22232;50.914;13.858;2024-03-06T00:05:36;97941.34;;;3.03;100.00
36190;BME280;22232;50.914;13.858;2024-03-06T00:08:03;97937.16;;;3.08;100.00
36190;BME280;22232;50.914;13.858;2024-03-06T00:10:31;97944.25;;;3.08;100.00
36190;BME280;22232;50.914;13.858;2024-03-06T00:12:59;97946.03;;;3.07;100.00
36190;BME280;22232;50.914;13.858;2024-03-06T00:15:27;97949.69;;;3.06;100.00
36190;BME280;22232;50.914;13.858;2024-03-06T00:17:55;97949.16;;;3.11;100.00
36190;BME280;22232;50.914;13.858;2024-03-06T00:20:22;97956.31;;;3.02;100.00
36190;BME280;22232;50.914;13.858;2024-03-06T00:22:50;97951.50;;;3.06;100.00
36190;BME280;22232;50.914;13.858;2024-03-06T00:25:17;97956.22;;;3.10;100.00
36190;BME280;22232;50.914;13.858;2024-03-06T00:27:45;97962.50;;;3.09;100.00
36190;BME280;22232;50.914;13.858;2024-03-06T00:30:13;97966.81;;;2.87;100.00
36190;BME280;22232;50.914;13.858;2024-03-06T00:32:40;97975.38;;;2.66;100.00
36190;BME280;22232;50.914;13.858;2024-03-06T00:35:08;97975.66;;;2.48;100.00
36190;BME280;22232;50.914;13.858;2024-03-06T00:37:36;97973.56;;;2.44;100.00
36190;BME280;22232;50.914;13.858;2024-03-06T00:40:03;97974.38;;;2.44;100.00
36190;BME280;22232;50.914;13.858;2024-03-06T00:42:31;97970.53;;;2.32;100.00
36190;BME280;22232;50.914;13.858;2024-03-06T00:44:59;97972.34;;;2.32;100.00
36190;BME280;22232;50.914;13.858;2024-03-06T00:47:26;97975.44;;;2.35;100.00
36190;BME280;22232;50.914;13.858;2024-03-06T00:49:54;97985.69;;;2.22;100.00
36190;BME280;22232;50.914;13.858;2024-03-06T00:52:22;97979.00;;;2.19;100.00
36190;BME280;22232;50.914;13.858;2024-03-06T00:54:49;97981.31;;;2.14;100.00
36190;BME280;22232;50.914;13.858;2024-03-06T00:57:17;97985.34;;;2.25;100.00
36190;BME280;22232;50.914;13.858;2024-03-06T00:59:44;97983.38;;;2.27;100.00
36190;BME280;22232;50.914;13.858;2024-03-06T01:02:12;97980.22;;;2.32;100.00
36190;BME280;22232;50.914;13.858;2024-03-06T01:04:40;97987.78;;;2.35;100.00
36190;BME280;22232;50.914;13.858;2024-03-06T01:07:07;97982.22;;;2.29;100.00
36190;BME280;22232;50.914;13.858;2024-03-06T01:09:35;97982.44;;;2.43;100.00
36190;BME280;22232;50.914;13.858;2024-03-06T01:12:02;97982.63;;;2.41;100.00
36190;BME280;22232;50.914;13.858;2024-03-06T01:14:30;97983.09;;;2.45;100.00
36190;BME280;22232;50.914;13.858;2024-03-06T01:16:58;97985.03;;;2.51;100.00
36190;BME280;22232;50.914;13.858;2024-03-06T01:19:26;97979.59;;;2.52;100.00
36190;BME280;22232;50.914;13.858;2024-03-06T01:21:54;97984.34;;;2.57;100.00
36190;BME280;22232;50.914;13.858;2024-03-06T01:24:21;97978.56;;;2.62;100.00
36190;BME280;22232;50.914;13.858;2024-03-06T01:26:49;97983.94;;;2.68;100.00
36190;BME280;22232;50.914;13.858;2024-03-06T01:29:16;97980.59;;;2.74;100.00
36190;BME280;22232;50.914;13.858;2024-03-06T01:31:45;97988.16;;;2.78;100.00
36190;BME280;22232;50.914;13.858;2024-03-06T01:34:14;97983.84;;;2.76;100.00
36190;BME280;22232;50.914;13.858;2024-03-06T01:36:41;97984.34;;;2.80;100.00
36190;BME280;22232;50.914;13.858;2024-03-06T01:39:09;97985.97;;;2.81;100.00
36190;BME280;22232;50.914;13.858;2024-03-06T01:41:37;97987.25;;;2.85;100.00
36190;BME280;22232;50.914;13.858;2024-03-06T01:44:04;97992.34;;;2.87;100.00
36190;BME280;22232;50.914;13.858;2024-03-06T01:46:32;97990.53;;;2.87;100.00
36190;BME280;22232;50.914;13.858;2024-03-06T01:49:00;97992.34;;;2.87;100.00
36190;BME280;22232;50.914;13.858;2024-03-06T01:51:31;98008.31;;;2.85;100.00
36190;BME280;22232;50.914;13.858;2024-03-06T01:54:01;97998.78;;;2.84;100.00
36190;BME280;22232;50.914;13.858;2024-03-06T01:56:33;97999.25;;;2.88;100.00
36190;BME280;22232;50.914;13.858;2024-03-06T01:59:01;98000.88;;;2.89;100.00
36190;BME280;22232;50.914;13.858;2024-03-06T02:01:32;98004.06;;;2.84;100.00
36190;BME280;22232;50.914;13.858;2024-03-06T02:04:00;98011.66;;;2.79;100.00
36190;BME280;22232;50.914;13.858;2024-03-06T02:06:28;98002.94;;;2.79;100.00
36190;BME280;22232;50.914;13.858;2024-03-06T02:08:57;97999.16;;;2.81;100.00
36190;BME280;22232;50.914;13.858;2024-03-06T02:11:24;98007.03;;;2.81;100.00
36190;BME280;22232;50.914;13.858;2024-03-06T02:13:52;98009.69;;;2.81;100.00
36190;BME280;22232;50.914;13.858;2024-03-06T02:16:19;97996.50;;;2.81;100.00
36190;BME280;22232;50.914;13.858;2024-03-06T02:18:56;98007.22;;;2.80;100.00
36190;BME280;22232;50.914;13.858;2024-03-06T02:21:25;98000.97;;;2.81;100.00
36190;BME280;22232;50.914;13.858;2024-03-06T02:23:52;98005.78;;;2.77;100.00
36190;BME280;22232;50.914;13.858;2024-03-06T02:26:21;98005.41;;;2.80;100.00
36190;BME280;22232;50.914;13.858;2024-03-06T02:28:54;97999.66;;;2.76;100.00
36190;BME280;22232;50.914;13.858;2024-03-06T02:31:22;98001.81;;;2.73;100.00
36190;BME280;22232;50.914;13.858;2024-03-06T02:33:50;98006.94;;;2.74;100.00
36190;BME280;22232;50.914;13.858;2024-03-06T02:36:18;98003.28;;;2.75;100.00
36190;BME280;22232;50.914;13.858;2024-03-06T02:38:46;98004.09;;;2.76;100.00
36190;BME280;22232;50.914;13.858;2024-03-06T02:41:13;98010.53;;;2.73;100.00
36190;BME280;22232;50.914;13.858;2024-03-06T02:43:43;98015.34;;;2.70;100.00
36190;BME280;22232;50.914;13.858;2024-03-06T02:46:11;98017.00;;;2.71;100.00
36190;BME280;22232;50.914;13.858;2024-03-06T02:48:38;98013.19;;;2.73;100.00
36190;BME280;22232;50.914;13.858;2024-03-06T02:51:06;98021.91;;;2.74;100.00
36190;BME280;22232;50.914;13.858;2024-03-06T02:53:35;98024.91;;;2.71;100.00
36190;BME280;22232;50.914;13.858;2024-03-06T02:56:02;98022.31;;;2.63;100.00
36190;BME280;22232;50.914;13.858;2024-03-06T02:58:30;98017.75;;;2.57;100.00
36190;BME280;22232;50.914;13.858;2024-03-06T03:00:59;98020.44;;;2.48;100.00
36190;BME280;22232;50.914;13.858;2024-03-06T03:03:27;98017.47;;;2.43;100.00
36190;BME280;22232;50.914;13.858;2024-03-06T03:05:54;98028.72;;;2.37;100.00
36190;BME280;22232;50.914;13.858;2024-03-06T03:08:22;98024.78;;;2.33;100.00
36190;BME280;22232;50.914;13.858;2024-03-06T03:10:49;98021.69;;;2.29;100.00
36190;BME280;22232;50.914;13.858;2024-03-06T03:13:17;98028.13;;;2.27;100.00
36190;BME280;22232;50.914;13.858;2024-03-06T03:15:44;98024.06;;;2.16;100.00
36190;BME280;22232;50.914;13.858;2024-03-06T03:18:12;98029.69;;;2.13;100.00
36190;BME280;22232;50.914;13.858;2024-03-06T03:20:40;98027.19;;;2.12;100.00
36190;BME280;22232;50.914;13.858;2024-03-06T03:23:07;98028.81;;;2.13;100.00
36190;BME280;22232;50.914;13.858;2024-03-06T03:25:39;98029.16;;;2.10;100.00
36190;BME280;22232;50.914;13.858;2024-03-06T03:28:07;98039.06;;;2.08;100.00
36190;BME280;22232;50.914;13.858;2024-03-06T03:30:34;98042.84;;;2.05;100.00
36190;BME280;22232;50.914;13.858;2024-03-06T03:33:02;98036.94;;;2.03;100.00
36190;BME280;22232;50.914;13.858;2024-03-06T03:35:30;98043.84;;;2.04;100.00
36190;BME280;22232;50.914;13.858;2024-03-06T03:37:59;98044.81;;;2.03;100.00
36190;BME280;22232;50.914;13.858;2024-03-06T03:40:26;98047.66;;;2.01;100.00
36190;BME280;22232;50.914;13.858;2024-03-06T03:42:54;98047.16;;;1.98;100.00
36190;BME280;22232;50.914;13.858;2024-03-06T03:45:21;98050.09;;;1.95;100.00
36190;BME280;22232;50.914;13.858;2024-03-06T03:47:49;98049.28;;;1.94;100.00
36190;BME280;22232;50.914;13.858;2024-03-06T03:50:16;98053.75;;;1.94;100.00
36190;BME280;22232;50.914;13.858;2024-03-06T03:52:44;98045.03;;;1.93;100.00
36190;BME280;22232;50.914;13.858;2024-03-06T03:55:11;98052.75;;;1.95;100.00
36190;BME280;22232;50.914;13.858;2024-03-06T03:57:39;98050.09;;;1.95;100.00
36190;BME280;22232;50.914;13.858;2024-03-06T04:00:07;98049.13;;;1.96;100.00
36190;BME280;22232;50.914;13.858;2024-03-06T04:02:39;98054.41;;;1.96;100.00
36190;BME280;22232;50.914;13.858;2024-03-06T04:05:07;98059.47;;;1.97;100.00
36190;BME280;22232;50.914;13.858;2024-03-06T04:07:37;98061.63;;;1.94;100.00
36190;BME280;22232;50.914;13.858;2024-03-06T04:10:06;98059.34;;;1.91;100.00
36190;BME280;22232;50.914;13.858;2024-03-06T04:12:33;98065.94;;;1.87;100.00
36190;BME280;22232;50.914;13.858;2024-03-06T04:15:01;98064.78;;;1.81;100.00
36190;BME280;22232;50.914;13.858;2024-03-06T04:17:28;98069.72;;;1.76;100.00
36190;BME280;22232;50.914;13.858;2024-03-06T04:19:56;98062.50;;;1.78;100.00
36190;BME280;22232;50.914;13.858;2024-03-06T04:22:23;98072.69;;;1.81;100.00
36190;BME280;22232;50.914;13.858;2024-03-06T04:24:51;98062.16;;;1.81;100.00
36190;BME280;22232;50.914;13.858;2024-03-06T04:27:18;98079.72;;;1.89;100.00
36190;BME280;22232;50.914;13.858;2024-03-06T04:29:46;98074.13;;;1.92;100.00
36190;BME280;22232;50.914;13.858;2024-03-06T04:32:13;98074.75;;;2.02;100.00
36190;BME280;22232;50.914;13.858;2024-03-06T04:34:41;98080.50;;;2.05;100.00
36190;BME280;22232;50.914;13.858;2024-03-06T04:37:08;98081.16;;;2.08;100.00
36190;BME280;22232;50.914;13.858;2024-03-06T04:39:36;98086.09;;;2.11;100.00
36190;BME280;22232;50.914;13.858;2024-03-06T04:42:04;98089.19;;;2.14;100.00
36190;BME280;22232;50.914;13.858;2024-03-06T04:44:34;98088.38;;;2.14;100.00
36190;BME280;22232;50.914;13.858;2024-03-06T04:47:01;98093.31;;;2.09;100.00
36190;BME280;22232;50.914;13.858;2024-03-06T04:49:33;98101.56;;;2.05;100.00
36190;BME280;22232;50.914;13.858;2024-03-06T04:52:01;98098.25;;;2.03;100.00
36190;BME280;22232;50.914;13.858;2024-03-06T04:54:30;98101.88;;;2.02;100.00
36190;BME280;22232;50.914;13.858;2024-03-06T04:56:57;98102.56;;;1.96;100.00
36190;BME280;22232;50.914;13.858;2024-03-06T04:59:25;98114.75;;;1.89;100.00
36190;BME280;22232;50.914;13.858;2024-03-06T05:01:53;98115.59;;;1.73;100.00
36190;BME280;22232;50.914;13.858;2024-03-06T05:04:21;98116.91;;;1.77;100.00
36190;BME280;22232;50.914;13.858;2024-03-06T05:07:05;98116.09;;;1.77;100.00
36190;BME280;22232;50.914;13.858;2024-03-06T05:09:50;98110.66;;;1.78;100.00
36190;BME280;22232;50.914;13.858;2024-03-06T05:12:35;98119.69;;;1.76;100.00
36190;BME280;22232;50.914;13.858;2024-03-06T05:15:20;98117.88;;;1.76;100.00
36190;BME280;22232;50.914;13.858;2024-03-06T05:18:05;98115.25;;;1.76;100.00
36190;BME280;22232;50.914;13.858;2024-03-06T05:20:50;98124.00;;;1.77;100.00
36190;BME280;22232;50.914;13.858;2024-03-06T05:23:35;98127.25;;;1.79;100.00
36190;BME280;22232;50.914;13.858;2024-03-06T05:26:20;98128.91;;;1.80;100.00
36190;BME280;22232;50.914;13.858;2024-03-06T05:29:05;98133.50;;;1.86;100.00
36190;BME280;22232;50.914;13.858;2024-03-06T05:31:50;98144.00;;;1.94;100.00
36190;BME280;22232;50.914;13.858;2024-03-06T05:34:35;98143.84;;;1.96;100.00
36190;BME280;22232;50.914;13.858;2024-03-06T05:37:20;98140.38;;;1.95;100.00
36190;BME280;22232;50.914;13.858;2024-03-06T05:40:06;98145.63;;;2.03;100.00
36190;BME280;22232;50.914;13.858;2024-03-06T05:42:50;98150.88;;;2.12;100.00
36190;BME280;22232;50.914;13.858;2024-03-06T05:45:36;98149.72;;;2.14;100.00
36190;BME280;22232;50.914;13.858;2024-03-06T05:48:21;98155.13;;;2.21;100.00
36190;BME280;22232;50.914;13.858;2024-03-06T05:51:06;98153.97;;;2.23;100.00
36190;BME280;22232;50.914;13.858;2024-03-06T05:53:50;98158.56;;;2.21;100.00
36190;BME280;22232;50.914;13.858;2024-03-06T05:56:35;98166.16;;;2.16;100.00
36190;BME280;22232;50.914;13.858;2024-03-06T05:59:20;98171.75;;;2.13;100.00
36190;BME280;22232;50.914;13.858;2024-03-06T06:01:48;98169.13;;;2.13;100.00
36190;BME280;22232;50.914;13.858;2024-03-06T06:04:15;98167.63;;;2.19;100.00
36190;BME280;22232;50.914;13.858;2024-03-06T06:06:43;98178.19;;;2.11;100.00
36190;BME280;22232;50.914;13.858;2024-03-06T06:09:10;98180.81;;;2.11;100.00
36190;BME280;22232;50.914;13.858;2024-03-06T06:11:44;98180.47;;;2.14;100.00
36190;BME280;22232;50.914;13.858;2024-03-06T06:14:12;98191.00;;;2.14;100.00
36190;BME280;22232;50.914;13.858;2024-03-06T06:16:40;98193.94;;;2.19;100.00
36190;BME280;22232;50.914;13.858;2024-03-06T06:19:10;98192.97;;;2.12;100.00
36190;BME280;22232;50.914;13.858;2024-03-06T06:21:38;98198.88;;;2.14;100.00
36190;BME280;22232;50.914;13.858;2024-03-06T06:24:05;98199.03;;;2.20;100.00
36190;BME280;22232;50.914;13.858;2024-03-06T06:26:33;98204.97;;;2.22;100.00
36190;BME280;22232;50.914;13.858;2024-03-06T06:29:01;98201.81;;;2.27;100.00
36190;BME280;22232;50.914;13.858;2024-03-06T06:31:28;98202.28;;;2.39;100.00
36190;BME280;22232;50.914;13.858;2024-03-06T06:33:56;98212.13;;;2.45;100.00
36190;BME280;22232;50.914;13.858;2024-03-06T06:36:23;98215.91;;;2.50;100.00
36190;BME280;22232;50.914;13.858;2024-03-06T06:38:51;98217.53;;;2.60;100.00
36190;BME280;22232;50.914;13.858;2024-03-06T06:41:19;98221.44;;;2.72;100.00
36190;BME280;22232;50.914;13.858;2024-03-06T06:43:47;98220.91;;;2.76;100.00
36190;BME280;22232;50.914;13.858;2024-03-06T06:46:14;98224.34;;;2.85;100.00
36190;BME280;22232;50.914;13.858;2024-03-06T06:48:43;98222.63;;;3.01;100.00
36190;BME280;22232;50.914;13.858;2024-03-06T06:51:11;98221.09;;;3.14;100.00
36190;BME280;22232;50.914;13.858;2024-03-06T06:53:41;98220.16;;;3.30;100.00
36190;BME280;22232;50.914;13.858;2024-03-06T06:56:09;98219.94;;;3.40;100.00
36190;BME280;22232;50.914;13.858;2024-03-06T06:58:36;98225.16;;;3.48;100.00
36190;BME280;22232;50.914;13.858;2024-03-06T07:01:04;98233.22;;;3.47;100.00
36190;BME280;22232;50.914;13.858;2024-03-06T07:03:32;98229.00;;;3.37;100.00
36190;BME280;22232;50.914;13.858;2024-03-06T07:05:59;98229.84;;;3.61;100.00
36190;BME280;22232;50.914;13.858;2024-03-06T07:08:27;98233.63;;;4.04;100.00
36190;BME280;22232;50.914;13.858;2024-03-06T07:10:54;98228.97;;;4.59;100.00
36190;BME280;22232;50.914;13.858;2024-03-06T07:13:22;98223.38;;;4.98;100.00
36190;BME280;22232;50.914;13.858;2024-03-06T07:15:50;98217.88;;;5.29;100.00
36190;BME280;22232;50.914;13.858;2024-03-06T07:18:17;98216.75;;;5.60;100.00
36190;BME280;22232;50.914;13.858;2024-03-06T07:20:45;98216.44;;;5.91;100.00
36190;BME280;22232;50.914;13.858;2024-03-06T07:23:14;98223.00;;;6.24;100.00
36190;BME280;22232;50.914;13.858;2024-03-06T07:25:42;98221.50;;;6.71;100.00
36190;BME280;22232;50.914;13.858;2024-03-06T07:28:09;98221.63;;;6.97;100.00
36190;BME280;22232;50.914;13.858;2024-03-06T07:30:37;98219.53;;;7.34;100.00
36190;BME280;22232;50.914;13.858;2024-03-06T07:33:04;98218.56;;;7.62;100.00
36190;BME280;22232;50.914;13.858;2024-03-06T07:35:32;98225.31;;;7.71;100.00
36190;BME280;22232;50.914;13.858;2024-03-06T07:38:00;98221.06;;;7.96;100.00
36190;BME280;22232;50.914;13.858;2024-03-06T07:40:27;98232.91;;;8.14;96.03
36190;BME280;22232;50.914;13.858;2024-03-06T07:42:55;98228.63;;;8.26;96.95
36190;BME280;22232;50.914;13.858;2024-03-06T07:45:23;98228.63;;;8.46;90.15
36190;BME280;22232;50.914;13.858;2024-03-06T07:47:50;98237.41;;;8.20;91.67
36190;BME280;22232;50.914;13.858;2024-03-06T07:50:18;98232.09;;;8.13;90.99
36190;BME280;22232;50.914;13.858;2024-03-06T07:52:47;98239.66;;;8.10;90.06
36190;BME280;22232;50.914;13.858;2024-03-06T07:55:14;98239.59;;;7.70;90.78
36190;BME280;22232;50.914;13.858;2024-03-06T07:57:42;98242.16;;;7.30;93.95
36190;BME280;22232;50.914;13.858;2024-03-06T08:00:13;98243.44;;;7.47;98.16
36190;BME280;22232;50.914;13.858;2024-03-06T08:02:42;98244.06;;;7.49;98.24
36190;BME280;22232;50.914;13.858;2024-03-06T08:05:16;98248.19;;;7.65;99.68
36190;BME280;22232;50.914;13.858;2024-03-06T08:07:45;98248.16;;;7.58;98.40
36190;BME280;22232;50.914;13.858;2024-03-06T08:10:13;98241.41;;;7.49;100.00
36190;BME280;22232;50.914;13.858;2024-03-06T08:12:42;98241.84;;;7.73;100.00
36190;BME280;22232;50.914;13.858;2024-03-06T08:15:11;98246.56;;;7.71;97.72
36190;BME280;22232;50.914;13.858;2024-03-06T08:17:42;98253.31;;;7.73;97.65
36190;BME280;22232;50.914;13.858;2024-03-06T08:20:11;98251.31;;;7.95;98.84
36190;BME280;22232;50.914;13.858;2024-03-06T08:22:41;98258.63;;;7.87;95.22
36190;BME280;22232;50.914;13.858;2024-03-06T08:25:10;98259.28;;;7.95;96.31
36190;BME280;22232;50.914;13.858;2024-03-06T08:27:41;98260.06;;;7.82;94.10
36190;BME280;22232;50.914;13.858;2024-03-06T08:30:10;98260.25;;;7.68;94.36
36190;BME280;22232;50.914;13.858;2024-03-06T08:32:37;98257.81;;;7.86;96.04
36190;BME280;22232;50.914;13.858;2024-03-06T08:35:08;98259.50;;;8.00;97.33
36190;BME280;22232;50.914;13.858;2024-03-06T08:37:43;98262.75;;;8.16;94.92
36190;BME280;22232;50.914;13.858;2024-03-06T08:40:11;98259.06;;;8.17;95.78
36190;BME280;22232;50.914;13.858;2024-03-06T08:42:43;98263.53;;;7.76;97.16
36190;BME280;22232;50.914;13.858;2024-03-06T08:45:11;98263.31;;;7.71;100.00
36190;BME280;22232;50.914;13.858;2024-03-06T08:47:38;98265.84;;;8.13;98.06
36190;BME280;22232;50.914;13.858;2024-03-06T08:50:06;98268.69;;;8.11;99.13
36190;BME280;22232;50.914;13.858;2024-03-06T08:52:37;98266.44;;;8.01;99.29
36190;BME280;22232;50.914;13.858;2024-03-06T08:55:05;98269.44;;;7.72;96.13
36190;BME280;22232;50.914;13.858;2024-03-06T08:57:34;98264.09;;;7.58;97.63
36190;BME280;22232;50.914;13.858;2024-03-06T09:00:03;98270.19;;;7.46;100.00
36190;BME280;22232;50.914;13.858;2024-03-06T09:02:30;98271.47;;;7.15;100.00
36190;BME280;22232;50.914;13.858;2024-03-06T09:04:58;98277.38;;;7.10;100.00
36190;BME280;22232;50.914;13.858;2024-03-06T09:07:26;98263.97;;;7.19;100.00
36190;BME280;22232;50.914;13.858;2024-03-06T09:09:53;98276.84;;;7.28;100.00
36190;BME280;22232;50.914;13.858;2024-03-06T09:12:21;98274.44;;;7.33;100.00
36190;BME280;22232;50.914;13.858;2024-03-06T09:14:48;98288.34;;;7.01;97.78
36190;BME280;22232;50.914;13.858;2024-03-06T09:17:16;98283.50;;;7.11;100.00
36190;BME280;22232;50.914;13.858;2024-03-06T09:19:43;98280.91;;;6.83;100.00
36190;BME280;22232;50.914;13.858;2024-03-06T09:22:30;98288.41;;;6.73;100.00
36190;BME280;22232;50.914;13.858;2024-03-06T09:24:57;98293.25;;;6.97;96.97
36190;BME280;22232;50.914;13.858;2024-03-06T09:27:25;98292.91;;;7.13;95.41
36190;BME280;22232;50.914;13.858;2024-03-06T09:29:52;98297.41;;;7.20;95.25
36190;BME280;22232;50.914;13.858;2024-03-06T09:32:20;98289.50;;;7.26;96.95
36190;BME280;22232;50.914;13.858;2024-03-06T09:34:49;98292.25;;;7.05;95.86
36190;BME280;22232;50.914;13.858;2024-03-06T09:37:18;98296.41;;;7.21;100.00
36190;BME280;22232;50.914;13.858;2024-03-06T09:39:45;98293.59;;;7.29;98.53
36190;BME280;22232;50.914;13.858;2024-03-06T09:42:16;98300.19;;;7.46;99.44
36190;BME280;22232;50.914;13.858;2024-03-06T09:44:44;98299.19;;;7.54;94.25
36190;BME280;22232;50.914;13.858;2024-03-06T09:47:13;98302.06;;;7.52;95.26
36190;BME280;22232;50.914;13.858;2024-03-06T09:49:43;98299.16;;;7.47;95.79
36190;BME280;22232;50.914;13.858;2024-03-06T09:52:11;98306.81;;;7.16;96.27
36190;BME280;22232;50.914;13.858;2024-03-06T09:54:40;98306.88;;;6.94;100.00
36190;BME280;22232;50.914;13.858;2024-03-06T09:57:07;98309.09;;;6.90;100.00
36190;BME280;22232;50.914;13.858;2024-03-06T09:59:35;98313.69;;;7.03;100.00
36190;BME280;22232;50.914;13.858;2024-03-06T10:02:17;98314.75;;;6.81;100.00
36190;BME280;22232;50.914;13.858;2024-03-06T10:04:46;98319.88;;;7.24;99.92
36190;BME280;22232;50.914;13.858;2024-03-06T10:07:14;98316.69;;;7.42;100.00
36190;BME280;22232;50.914;13.858;2024-03-06T10:09:42;98320.50;;;7.74;97.51
36190;BME280;22232;50.914;13.858;2024-03-06T10:12:12;98313.91;;;7.56;99.10
36190;BME280;22232;50.914;13.858;2024-03-06T10:14:48;98316.72;;;7.48;96.84
36190;BME280;22232;50.914;13.858;2024-03-06T10:17:20;98318.38;;;7.49;97.80
36190;BME280;22232;50.914;13.858;2024-03-06T10:19:51;98315.88;;;7.34;95.63
36190;BME280;22232;50.914;13.858;2024-03-06T10:22:19;98321.72;;;7.65;96.72
36190;BME280;22232;50.914;13.858;2024-03-06T10:24:48;98327.28;;;7.28;93.41
36190;BME280;22232;50.914;13.858;2024-03-06T10:27:16;98324.13;;;7.18;93.59
36190;BME280;22232;50.914;13.858;2024-03-06T10:29:46;98316.78;;;7.62;92.58
36190;BME280;22232;50.914;13.858;2024-03-06T10:32:31;98327.50;;;7.95;88.52
36190;BME280;22232;50.914;13.858;2024-03-06T10:34:59;98325.44;;;7.97;87.57
36190;BME280;22232;50.914;13.858;2024-03-06T10:37:28;98325.34;;;7.64;86.24
36190;BME280;22232;50.914;13.858;2024-03-06T10:39:58;98327.34;;;7.48;88.65
36190;BME280;22232;50.914;13.858;2024-03-06T10:42:35;98326.13;;;7.51;87.13
36190;BME280;22232;50.914;13.858;2024-03-06T10:45:04;98329.31;;;7.81;85.78
36190;BME280;22232;50.914;13.858;2024-03-06T10:47:33;98332.75;;;7.68;80.35
36190;BME280;22232;50.914;13.858;2024-03-06T10:50:02;98322.53;;;7.65;82.08
36190;BME280;22232;50.914;13.858;2024-03-06T10:52:33;98331.94;;;7.68;86.00
36190;BME280;22232;50.914;13.858;2024-03-06T10:55:01;98324.34;;;7.65;84.48
36190;BME280;22232;50.914;13.858;2024-03-06T10:57:30;98331.06;;;7.61;80.53
36190;BME280;22232;50.914;13.858;2024-03-06T10:59:57;98327.19;;;7.56;79.48
36190;BME280;22232;50.914;13.858;2024-03-06T11:02:31;98333.38;;;7.29;82.39
36190;BME280;22232;50.914;13.858;2024-03-06T11:04:59;98329.78;;;6.74;92.05
36190;BME280;22232;50.914;13.858;2024-03-06T11:07:28;98333.00;;;6.41;98.61
36190;BME280;22232;50.914;13.858;2024-03-06T11:09:58;98332.94;;;6.34;100.00
36190;BME280;22232;50.914;13.858;2024-03-06T11:12:37;98339.72;;;6.15;100.00
36190;BME280;22232;50.914;13.858;2024-03-06T11:15:16;98346.56;;;6.10;100.00
36190;BME280;22232;50.914;13.858;2024-03-06T11:17:44;98347.50;;;5.87;100.00
36190;BME280;22232;50.914;13.858;2024-03-06T11:20:18;98342.53;;;5.78;100.00
36190;BME280;22232;50.914;13.858;2024-03-06T11:28:22;98360.28;;;5.98;100.00
36190;BME280;22232;50.914;13.858;2024-03-06T11:31:05;98350.66;;;5.76;100.00
36190;BME280;22232;50.914;13.858;2024-03-06T11:33:41;98357.25;;;5.65;100.00
36190;BME280;22232;50.914;13.858;2024-03-06T11:36:23;98345.31;;;5.55;100.00
36190;BME280;22232;50.914;13.858;2024-03-06T11:39:05;98348.88;;;5.47;100.00
36190;BME280;22232;50.914;13.858;2024-03-06T11:41:49;98349.16;;;5.52;100.00
36190;BME280;22232;50.914;13.858;2024-03-06T11:44:20;98353.03;;;5.71;100.00
36190;BME280;22232;50.914;13.858;2024-03-06T11:49:22;98344.63;;;5.97;100.00
36190;BME280;22232;50.914;13.858;2024-03-06T11:51:56;98354.56;;;5.80;100.00
36190;BME280;22232;50.914;13.858;2024-03-06T11:54:25;98348.25;;;5.81;97.69
36190;BME280;22232;50.914;13.858;2024-03-06T11:56:58;98358.97;;;5.73;100.00
36190;BME280;22232;50.914;13.858;2024-03-06T11:59:28;98350.50;;;5.63;100.00
36190;BME280;22232;50.914;13.858;2024-03-06T12:01:57;98350.72;;;5.83;100.00
36190;BME280;22232;50.914;13.858;2024-03-06T12:04:25;98353.84;;;5.71;100.00
36190;BME280;22232;50.914;13.858;2024-03-06T12:06:56;98354.72;;;5.57;100.00
36190;BME280;22232;50.914;13.858;2024-03-06T12:09:25;98353.88;;;5.57;100.00
36190;BME280;22232;50.914;13.858;2024-03-06T12:11:55;98351.91;;;5.44;100.00
36190;BME280;22232;50.914;13.858;2024-03-06T12:14:24;98368.25;;;5.03;100.00
36190;BME280;22232;50.914;13.858;2024-03-06T12:17:14;98368.03;;;5.04;100.00
36190;BME280;22232;50.914;13.858;2024-03-06T12:19:44;98364.13;;;4.86;100.00
36190;BME280;22232;50.914;13.858;2024-03-06T12:22:13;98366.31;;;4.82;100.00
36190;BME280;22232;50.914;13.858;2024-03-06T12:24:42;98368.41;;;5.16;100.00
36190;BME280;22232;50.914;13.858;2024-03-06T12:27:10;98357.69;;;5.18;100.00
36190;BME280;22232;50.914;13.858;2024-03-06T12:29:40;98365.03;;;4.78;100.00
36190;BME280;22232;50.914;13.858;2024-03-06T12:32:17;98373.59;;;4.42;100.00
36190;BME280;22232;50.914;13.858;2024-03-06T12:34:57;98370.88;;;4.27;100.00
36190;BME280;22232;50.914;13.858;2024-03-06T12:37:30;98371.53;;;4.29;100.00
36190;BME280;22232;50.914;13.858;2024-03-06T12:40:03;98360.09;;;4.37;100.00
36190;BME280;22232;50.914;13.858;2024-03-06T12:42:40;98372.78;;;4.42;100.00
36190;BME280;22232;50.914;13.858;2024-03-06T12:45:09;98362.38;;;4.40;100.00
36190;BME280;22232;50.914;13.858;2024-03-06T12:47:37;98356.31;;;4.54;100.00
36190;BME280;22232;50.914;13.858;2024-03-06T12:50:05;98354.31;;;4.71;100.00
36190;BME280;22232;50.914;13.858;2024-03-06T12:52:35;98362.00;;;4.66;100.00
36190;BME280;22232;50.914;13.858;2024-03-06T12:55:03;98361.69;;;4.61;100.00
36190;BME280;22232;50.914;13.858;2024-03-06T12:57:32;98376.75;;;4.60;100.00
36190;BME280;22232;50.914;13.858;2024-03-06T13:00:00;98364.84;;;4.42;100.00
36190;BME280;22232;50.914;13.858;2024-03-06T13:02:27;98363.94;;;4.49;100.00
36190;BME280;22232;50.914;13.858;2024-03-06T13:04:55;98376.09;;;4.58;100.00
36190;BME280;22232;50.914;13.858;2024-03-06T13:07:23;98366.34;;;5.12;100.00
36190;BME280;22232;50.914;13.858;2024-03-06T13:09:50;98363.47;;;4.98;100.00
36190;BME280;22232;50.914;13.858;2024-03-06T13:12:18;98360.38;;;4.95;100.00
36190;BME280;22232;50.914;13.858;2024-03-06T13:14:45;98365.13;;;4.85;100.00